createdAt,value
2022-10-06T00:01:34.503Z,10.61
2022-10-06T00:03:38.558Z,10.55
2022-10-06T00:05:41.351Z,10.57
2022-10-06T00:07:44.019Z,10.54
2022-10-06T00:09:46.868Z,10.50
2022-10-06T00:11:49.594Z,10.51
2022-10-06T00:13:52.281Z,10.50
2022-10-06T00:15:55.007Z,10.48
2022-10-06T00:17:58.430Z,10.48
2022-10-06T00:20:01.086Z,10.48
2022-10-06T00:22:03.801Z,10.42
2022-10-06T00:24:06.568Z,10.44
2022-10-06T00:26:17.428Z,10.42
2022-10-06T00:28:20.785Z,10.41
2022-10-06T00:30:26.526Z,10.36
2022-10-06T00:32:29.399Z,10.33
2022-10-06T00:34:32.051Z,10.33
2022-10-06T00:36:34.807Z,10.30
2022-10-06T00:38:37.667Z,10.29
2022-10-06T00:40:49.368Z,10.26
2022-10-06T00:43:02.466Z,10.25
2022-10-06T00:45:06.582Z,10.22
2022-10-06T00:47:09.223Z,10.20
2022-10-06T00:49:26.557Z,10.19
2022-10-06T00:51:30.896Z,10.16
2022-10-06T00:53:33.914Z,10.20
2022-10-06T00:55:36.769Z,10.18
2022-10-06T00:57:41.494Z,10.19
2022-10-06T00:59:44.148Z,10.19
2022-10-06T01:02:01.782Z,10.21
2022-10-06T01:04:09.909Z,10.21
2022-10-06T01:06:13.563Z,10.19
2022-10-06T01:08:17.009Z,10.22
2022-10-06T01:10:19.783Z,10.22
2022-10-06T01:12:23.353Z,10.21
2022-10-06T01:14:26.752Z,10.22
2022-10-06T01:16:32.395Z,10.25
2022-10-06T01:18:39.276Z,10.28
2022-10-06T01:20:49.231Z,10.26
2022-10-06T01:23:10.728Z,10.29
2022-10-06T01:25:16.597Z,10.29
2022-10-06T01:27:20.947Z,10.27
2022-10-06T01:29:24.985Z,10.31
2022-10-06T01:31:28.016Z,10.34
2022-10-06T01:33:30.873Z,10.35
2022-10-06T01:35:33.595Z,10.36
2022-10-06T01:37:36.307Z,10.39
2022-10-06T01:39:38.946Z,10.38
2022-10-06T01:41:41.584Z,10.38
2022-10-06T01:43:44.233Z,10.38
2022-10-06T01:45:52.971Z,10.34
2022-10-06T01:47:55.633Z,10.36
2022-10-06T01:49:58.279Z,10.38
2022-10-06T01:52:01.498Z,10.40
2022-10-06T01:54:04.363Z,10.39
2022-10-06T01:56:07.163Z,10.39
2022-10-06T01:58:11.336Z,10.39
2022-10-06T02:00:14.206Z,10.38
2022-10-06T02:02:17.628Z,10.38
2022-10-06T02:04:20.329Z,10.39
2022-10-06T02:06:23.080Z,10.35
2022-10-06T02:08:26.117Z,10.36
2022-10-06T02:10:29.152Z,10.37
2022-10-06T02:12:32.436Z,10.35
2022-10-06T02:14:35.179Z,10.41
2022-10-06T02:16:38.065Z,10.40
2022-10-06T02:18:41.069Z,10.41
2022-10-06T02:20:43.894Z,10.43
2022-10-06T02:22:46.536Z,10.43
2022-10-06T02:24:49.277Z,10.41
2022-10-06T02:26:52.852Z,10.43
2022-10-06T02:28:55.471Z,10.36
2022-10-06T02:31:08.967Z,10.28
2022-10-06T02:33:11.674Z,10.24
2022-10-06T02:35:14.578Z,10.21
2022-10-06T02:37:17.604Z,10.19
2022-10-06T02:39:20.268Z,10.16
2022-10-06T02:41:23.009Z,10.12
2022-10-06T02:43:29.763Z,10.11
2022-10-06T02:45:32.480Z,10.05
2022-10-06T02:47:37.083Z,10.06
2022-10-06T02:49:39.888Z,10.05
2022-10-06T02:51:42.550Z,10.05
2022-10-06T02:53:48.360Z,10.03
2022-10-06T02:55:51.178Z,10.01
2022-10-06T02:57:55.409Z,9.98
2022-10-06T02:59:58.239Z,10.01
2022-10-06T03:02:01.012Z,9.97
2022-10-06T03:04:03.745Z,9.96
2022-10-06T03:06:27.062Z,9.94
2022-10-06T03:08:29.996Z,9.93
2022-10-06T03:10:32.810Z,9.91
2022-10-06T03:12:35.465Z,9.91
2022-10-06T03:14:38.415Z,9.92
2022-10-06T03:16:43.106Z,9.89
2022-10-06T03:18:47.090Z,9.83
2022-10-06T03:20:49.858Z,9.81
2022-10-06T03:22:54.486Z,9.80
2022-10-06T03:24:57.198Z,9.78
2022-10-06T03:26:59.943Z,9.62
2022-10-06T03:29:03.916Z,9.72
2022-10-06T03:31:08.705Z,9.68
2022-10-06T03:33:11.347Z,9.69
2022-10-06T03:35:13.997Z,9.67
2022-10-06T03:37:19.282Z,9.66
2022-10-06T03:39:22.009Z,9.60
2022-10-06T03:41:27.749Z,9.59
2022-10-06T03:43:30.754Z,9.53
2022-10-06T03:45:33.405Z,9.53
2022-10-06T03:47:36.059Z,9.51
2022-10-06T03:49:39.279Z,9.55
2022-10-06T03:51:42.526Z,9.56
2022-10-06T03:53:46.625Z,9.58
2022-10-06T03:55:49.377Z,9.55
2022-10-06T03:57:51.997Z,9.55
2022-10-06T03:59:55.296Z,9.60
2022-10-06T04:01:58.033Z,9.61
2022-10-06T04:04:01.740Z,9.60
2022-10-06T04:06:06.562Z,9.57
2022-10-06T04:08:09.160Z,9.58
2022-10-06T04:10:11.747Z,9.58
2022-10-06T04:12:14.441Z,9.62
2022-10-06T04:14:17.351Z,9.59
2022-10-06T04:16:25.938Z,9.60
2022-10-06T04:18:28.991Z,9.63
2022-10-06T04:20:31.986Z,9.65
2022-10-06T04:22:34.754Z,9.63
2022-10-06T04:24:37.467Z,9.64
2022-10-06T04:26:46.941Z,9.63
2022-10-06T04:28:50.336Z,9.62
2022-10-06T04:30:57.994Z,9.61
2022-10-06T04:33:00.622Z,9.62
2022-10-06T04:35:03.297Z,9.65
2022-10-06T04:37:05.927Z,9.68
2022-10-06T04:39:10.802Z,9.67
2022-10-06T04:41:15.785Z,9.66
2022-10-06T04:43:18.477Z,9.69
2022-10-06T04:45:21.168Z,9.72
2022-10-06T04:47:23.822Z,9.76
2022-10-06T04:49:26.473Z,9.82
2022-10-06T04:51:29.809Z,9.89
2022-10-06T04:53:33.463Z,9.94
2022-10-06T04:55:36.146Z,10.01
2022-10-06T04:57:38.732Z,10.05
2022-10-06T05:00:05.930Z,10.09
2022-10-06T05:02:12.051Z,10.09
2022-10-06T05:04:16.081Z,10.11
2022-10-06T05:06:21.908Z,10.17
2022-10-06T05:08:24.584Z,10.32
2022-10-06T05:10:28.801Z,10.39
2022-10-06T05:12:31.535Z,10.41
2022-10-06T05:14:34.184Z,10.46
2022-10-06T05:16:39.729Z,10.50
2022-10-06T05:18:42.966Z,10.51
2022-10-06T05:20:56.270Z,10.54
2022-10-06T05:22:59.007Z,10.50
2022-10-06T05:25:01.806Z,10.42
2022-10-06T05:27:04.686Z,10.42
2022-10-06T05:29:07.443Z,10.42
2022-10-06T05:31:18.775Z,10.38
2022-10-06T05:33:21.507Z,10.40
2022-10-06T05:35:24.190Z,10.41
2022-10-06T05:37:27.062Z,10.42
2022-10-06T05:39:29.871Z,10.42
2022-10-06T05:41:34.268Z,10.45
2022-10-06T05:43:37.330Z,10.40
2022-10-06T05:45:39.998Z,10.40
2022-10-06T05:47:42.746Z,10.34
2022-10-06T05:49:45.453Z,10.36
2022-10-06T05:51:48.199Z,10.35
2022-10-06T05:53:51.191Z,10.40
2022-10-06T05:56:02.107Z,10.38
2022-10-06T05:58:04.869Z,10.43
2022-10-06T06:00:08.202Z,10.45
2022-10-06T06:02:11.006Z,10.47
2022-10-06T06:04:14.445Z,10.53
2022-10-06T06:06:26.036Z,10.45
2022-10-06T06:08:29.430Z,10.39
2022-10-06T06:10:32.584Z,10.34
2022-10-06T06:12:35.167Z,10.29
2022-10-06T06:14:56.283Z,10.22
2022-10-06T06:16:59.243Z,10.18
2022-10-06T06:19:02.140Z,10.15
2022-10-06T06:21:08.243Z,10.11
2022-10-06T06:23:10.899Z,10.04
2022-10-06T06:25:13.638Z,10.04
2022-10-06T06:27:16.514Z,10.04
2022-10-06T06:29:19.186Z,10.05
2022-10-06T06:31:26.833Z,10.08
2022-10-06T06:33:31.320Z,10.19
2022-10-06T06:35:35.091Z,10.26
2022-10-06T06:37:37.861Z,10.27
2022-10-06T06:39:40.481Z,10.28
2022-10-06T06:41:47.755Z,10.33
2022-10-06T06:43:51.933Z,10.30
2022-10-06T06:45:54.816Z,10.33
2022-10-06T06:47:57.682Z,10.33
2022-10-06T06:50:02.960Z,10.32
2022-10-06T06:52:06.437Z,10.34
2022-10-06T06:54:11.122Z,10.38
2022-10-06T06:56:13.794Z,10.39
2022-10-06T06:58:16.431Z,10.42
2022-10-06T07:00:19.106Z,10.36
2022-10-06T07:02:24.501Z,10.30
2022-10-06T07:04:27.559Z,10.10
2022-10-06T07:06:31.422Z,9.88
2022-10-06T07:08:34.027Z,9.75
2022-10-06T07:10:37.358Z,9.56
2022-10-06T07:12:40.121Z,9.42
2022-10-06T07:15:02.698Z,9.26
2022-10-06T07:17:25.466Z,9.14
2022-10-06T07:19:43.340Z,9.09
2022-10-06T07:22:17.871Z,9.10
2022-10-06T07:24:40.597Z,9.09
2022-10-06T07:26:44.168Z,9.09
2022-10-06T07:28:46.779Z,9.13
2022-10-06T07:30:50.725Z,9.15
2022-10-06T07:32:53.848Z,9.14
2022-10-06T07:34:58.344Z,9.13
2022-10-06T07:37:04.140Z,9.11
2022-10-06T07:39:10.619Z,9.13
2022-10-06T07:41:20.830Z,9.11
2022-10-06T07:43:23.927Z,9.16
2022-10-06T07:45:41.628Z,9.18
2022-10-06T07:47:44.546Z,9.19
2022-10-06T07:49:47.527Z,9.17
2022-10-06T07:51:50.213Z,9.22
2022-10-06T07:53:53.902Z,9.22
2022-10-06T07:56:07.597Z,9.22
2022-10-06T07:58:15.406Z,9.23
2022-10-06T08:00:22.542Z,9.25
2022-10-06T08:02:30.200Z,9.24
2022-10-06T08:04:35.781Z,9.28
2022-10-06T08:06:38.925Z,9.21
2022-10-06T08:08:42.993Z,9.24
2022-10-06T08:10:53.830Z,9.19
2022-10-06T08:12:56.542Z,9.16
2022-10-06T08:15:06.858Z,9.18
2022-10-06T08:17:10.366Z,9.16
2022-10-06T08:19:14.719Z,9.17
2022-10-06T08:21:26.615Z,9.19
2022-10-06T08:23:29.155Z,9.14
2022-10-06T08:25:31.645Z,9.09
2022-10-06T08:27:35.727Z,9.07
2022-10-06T08:29:38.463Z,9.13
2022-10-06T08:31:41.150Z,9.12
2022-10-06T08:33:45.048Z,9.12
2022-10-06T08:35:47.989Z,9.09
2022-10-06T08:37:50.726Z,9.07
2022-10-06T08:39:54.761Z,9.12
2022-10-06T08:41:58.196Z,9.15
2022-10-06T08:44:19.439Z,9.14
2022-10-06T08:46:25.302Z,9.05
2022-10-06T08:48:38.906Z,9.18
2022-10-06T08:51:29.004Z,9.15
2022-10-06T08:53:47.086Z,9.14
2022-10-06T08:55:54.840Z,9.13
2022-10-06T08:58:15.696Z,9.14
2022-10-06T09:00:21.391Z,9.16
2022-10-06T09:02:39.096Z,9.13
2022-10-06T09:04:42.459Z,9.11
2022-10-06T09:06:52.368Z,9.17
2022-10-06T09:09:26.027Z,9.15
2022-10-06T09:12:02.274Z,9.23
2022-10-06T09:14:12.856Z,9.16
2022-10-06T09:16:19.907Z,9.14
2022-10-06T09:18:56.138Z,9.17
2022-10-06T09:21:00.337Z,9.14
2022-10-06T09:23:09.728Z,9.10
2022-10-06T09:25:22.010Z,9.06
2022-10-06T09:27:33.799Z,9.02
2022-10-06T09:29:36.528Z,8.98
2022-10-06T09:31:44.898Z,8.93
2022-10-06T09:33:49.979Z,8.93
2022-10-06T09:36:12.594Z,8.91
2022-10-06T09:38:15.254Z,8.89
2022-10-06T09:40:36.650Z,8.94
2022-10-06T09:42:44.831Z,8.95
2022-10-06T09:44:56.139Z,8.98
2022-10-06T09:46:58.715Z,8.97
2022-10-06T09:49:24.740Z,9.01
2022-10-06T09:51:28.038Z,8.99
2022-10-06T09:53:34.264Z,8.98
2022-10-06T09:55:39.784Z,8.98
2022-10-06T09:57:53.577Z,8.98
2022-10-06T09:59:59.426Z,8.98
2022-10-06T10:02:04.780Z,9.01
2022-10-06T10:04:20.666Z,9.03
2022-10-06T10:06:30.356Z,9.03
2022-10-06T10:10:36.977Z,8.98
2022-10-06T10:12:53.103Z,8.97
2022-10-06T10:14:59.164Z,8.96
2022-10-06T10:17:11.027Z,8.96
2022-10-06T10:19:24.623Z,8.96
2022-10-06T10:21:35.601Z,8.95
2022-10-06T10:23:43.299Z,8.92
2022-10-06T10:25:55.317Z,8.94
2022-10-06T10:28:19.380Z,8.97
2022-10-06T10:30:24.001Z,9.01
2022-10-06T10:32:40.637Z,9.03
2022-10-06T10:34:52.149Z,9.07
2022-10-06T10:37:04.392Z,9.02
2022-10-06T10:39:14.343Z,9.01
2022-10-06T10:41:24.709Z,9.00
2022-10-06T10:43:42.400Z,8.99
2022-10-06T10:45:51.062Z,9.01
2022-10-06T10:47:55.680Z,8.99
2022-10-06T10:50:17.166Z,9.02
2022-10-06T10:52:23.593Z,9.07
2022-10-06T10:54:28.791Z,9.08
2022-10-06T10:56:59.075Z,9.09
2022-10-06T10:59:11.458Z,9.04
2022-10-06T11:01:50.381Z,8.99
2022-10-06T11:04:00.078Z,8.97
2022-10-06T11:06:25.758Z,8.93
2022-10-06T11:08:38.714Z,8.89
2022-10-06T11:10:51.286Z,8.89
2022-10-06T11:13:11.618Z,8.91
2022-10-06T11:15:46.311Z,8.92
2022-10-06T11:17:50.790Z,8.93
2022-10-06T11:19:59.294Z,8.94
2022-10-06T11:22:15.072Z,8.97
2022-10-06T11:24:59.196Z,8.99
2022-10-06T11:27:13.620Z,9.00
2022-10-06T11:29:27.713Z,9.03
2022-10-06T11:31:45.089Z,9.00
2022-10-06T11:33:53.049Z,9.00
2022-10-06T11:35:56.307Z,9.00
2022-10-06T11:38:15.978Z,8.99
2022-10-06T11:40:48.062Z,9.09
2022-10-06T11:43:11.930Z,9.14
2022-10-06T11:45:16.569Z,9.21
2022-10-06T11:47:35.616Z,9.25
2022-10-06T11:49:52.799Z,9.27
2022-10-06T11:51:59.594Z,9.33
2022-10-06T11:54:03.050Z,9.35
2022-10-06T11:56:17.604Z,9.35
2022-10-06T12:00:46.200Z,9.35
2022-10-06T12:02:49.015Z,9.37
2022-10-06T12:05:28.481Z,9.37
2022-10-06T12:07:57.083Z,9.37
2022-10-06T12:10:32.275Z,9.36
2022-10-06T12:12:42.214Z,9.33
2022-10-06T12:17:08.536Z,9.36
2022-10-06T12:18:00.339Z,9.38
2022-10-06T12:20:18.767Z,9.44
2022-10-06T12:22:39.035Z,9.47
2022-10-06T12:25:18.962Z,9.52
2022-10-06T12:27:29.840Z,9.61
2022-10-06T12:29:49.283Z,9.73
2022-10-06T12:32:07.590Z,9.87
2022-10-06T12:34:42.463Z,10.05
2022-10-06T12:36:45.246Z,10.13
2022-10-06T12:39:05.618Z,10.18
2022-10-06T12:41:12.855Z,10.28
2022-10-06T12:43:18.492Z,10.41
2022-10-06T12:45:22.880Z,10.33
2022-10-06T12:47:43.806Z,10.28
2022-10-06T12:50:02.260Z,10.17
2022-10-06T12:52:18.937Z,10.08
2022-10-06T12:54:50.468Z,9.98
2022-10-06T12:56:59.004Z,9.85
2022-10-06T12:59:35.433Z,9.73
2022-10-06T13:01:39.017Z,9.68
2022-10-06T13:03:48.451Z,9.61
2022-10-06T13:06:01.232Z,9.57
2022-10-06T13:08:07.070Z,9.53
2022-10-06T13:10:15.294Z,9.51
2022-10-06T13:12:20.817Z,9.50
2022-10-06T13:14:23.506Z,9.49
2022-10-06T13:16:31.452Z,9.48
2022-10-06T13:18:34.141Z,9.45
2022-10-06T13:20:46.346Z,9.42
2022-10-06T13:23:13.833Z,9.37
2022-10-06T13:25:16.785Z,9.43
2022-10-06T13:27:19.663Z,9.42
2022-10-06T13:29:25.251Z,9.39
2022-10-06T13:31:36.806Z,9.38
2022-10-06T13:33:41.385Z,9.35
2022-10-06T13:35:44.589Z,9.34
2022-10-06T13:37:47.626Z,9.30
2022-10-06T13:39:50.311Z,9.29
2022-10-06T13:42:08.886Z,9.26
2022-10-06T13:44:20.093Z,9.21
2022-10-06T13:46:25.915Z,9.20
2022-10-06T13:48:30.347Z,9.18
2022-10-06T13:50:34.119Z,9.18
2022-10-06T13:52:46.837Z,9.14
2022-10-06T13:54:57.653Z,9.16
2022-10-06T13:57:00.735Z,9.17
2022-10-06T13:59:23.349Z,9.15
2022-10-06T14:01:31.206Z,9.09
2022-10-06T14:05:45.760Z,9.08
2022-10-06T14:07:49.755Z,9.09
2022-10-06T14:09:52.429Z,9.07
2022-10-06T14:12:04.933Z,9.04
2022-10-06T14:14:16.244Z,9.05
2022-10-06T14:16:29.705Z,9.03
2022-10-06T14:18:40.344Z,9.03
2022-10-06T14:20:50.084Z,9.01
2022-10-06T14:22:52.820Z,9.04
2022-10-06T14:24:55.859Z,9.05
2022-10-06T14:27:03.977Z,9.04
2022-10-06T14:29:06.753Z,9.01
2022-10-06T14:31:14.297Z,9.02
2022-10-06T14:33:17.720Z,8.94
2022-10-06T14:35:20.512Z,9.00
2022-10-06T14:37:23.279Z,9.06
2022-10-06T14:39:25.944Z,9.06
2022-10-06T14:41:30.426Z,9.04
2022-10-06T14:43:33.222Z,9.03
2022-10-06T14:45:39.979Z,9.04
2022-10-06T14:47:42.572Z,9.03
2022-10-06T14:49:45.561Z,9.00
2022-10-06T14:51:48.177Z,9.00
2022-10-06T14:53:55.363Z,8.99
2022-10-06T14:56:06.502Z,8.96
2022-10-06T14:58:09.258Z,8.95
2022-10-06T15:00:12.430Z,8.94
2022-10-06T15:02:15.105Z,8.92
2022-10-06T15:04:19.915Z,8.89
2022-10-06T15:06:41.371Z,8.89
2022-10-06T15:08:44.099Z,8.91
2022-10-06T15:10:52.316Z,8.88
2022-10-06T15:12:55.780Z,8.93
2022-10-06T15:14:58.485Z,8.91
2022-10-06T15:17:01.392Z,8.93
2022-10-06T15:19:05.751Z,8.94
2022-10-06T15:21:09.987Z,8.95
2022-10-06T15:23:12.573Z,8.97
2022-10-06T15:25:35.527Z,8.99
2022-10-06T15:27:56.955Z,8.97
2022-10-06T15:30:00.376Z,8.94
2022-10-06T15:32:06.830Z,8.96
2022-10-06T15:34:12.946Z,8.95
2022-10-06T15:36:18.784Z,8.96
2022-10-06T15:38:21.585Z,8.96
2022-10-06T15:40:24.392Z,8.92
2022-10-06T15:42:27.176Z,8.93
2022-10-06T15:44:32.778Z,8.92
2022-10-06T15:46:44.221Z,8.94
2022-10-06T15:48:47.001Z,8.92
2022-10-06T15:50:49.577Z,8.95
2022-10-06T15:52:52.317Z,8.95
2022-10-06T15:54:54.943Z,8.94
2022-10-06T15:56:59.692Z,8.95
2022-10-06T15:59:02.874Z,8.95
2022-10-06T16:01:10.599Z,8.96
2022-10-06T16:03:26.767Z,8.94
2022-10-06T16:05:49.632Z,8.92
2022-10-06T16:07:52.364Z,8.93
2022-10-06T16:09:55.021Z,8.95
2022-10-06T16:11:59.380Z,8.98
2022-10-06T16:14:02.359Z,8.98
2022-10-06T16:16:05.325Z,8.97
2022-10-06T16:18:08.129Z,8.99
2022-10-06T16:20:11.790Z,8.96
2022-10-06T16:22:16.430Z,8.97
2022-10-06T16:24:20.792Z,8.93
2022-10-06T16:26:24.721Z,8.91
2022-10-06T16:28:27.468Z,8.91
2022-10-06T16:30:30.411Z,8.92
2022-10-06T16:32:33.061Z,8.86
2022-10-06T16:34:35.773Z,8.87
2022-10-06T16:36:39.076Z,8.84
2022-10-06T16:38:42.574Z,8.86
2022-10-06T16:40:45.191Z,8.85
2022-10-06T16:42:48.109Z,8.80
2022-10-06T16:44:50.745Z,8.83
2022-10-06T16:46:53.388Z,8.83
2022-10-06T16:48:58.100Z,8.85
2022-10-06T16:51:12.263Z,8.82
2022-10-06T16:53:16.981Z,8.86
2022-10-06T16:55:19.845Z,8.87
2022-10-06T16:57:22.630Z,8.87
2022-10-06T16:59:29.026Z,8.86
2022-10-06T17:01:34.886Z,8.86
2022-10-06T17:03:37.664Z,8.84
2022-10-06T17:05:40.369Z,8.87
2022-10-06T17:07:43.150Z,8.86
2022-10-06T17:09:56.108Z,8.87
2022-10-06T17:12:08.453Z,8.86
2022-10-06T17:14:11.763Z,8.87
2022-10-06T17:16:20.716Z,8.84
2022-10-06T17:18:23.663Z,8.85
2022-10-06T17:20:26.527Z,8.83
2022-10-06T17:22:29.138Z,8.82
2022-10-06T17:24:31.755Z,8.82
2022-10-06T17:26:36.618Z,8.81
2022-10-06T17:28:41.401Z,8.80
2022-10-06T17:30:52.867Z,8.79
2022-10-06T17:32:55.604Z,8.79
2022-10-06T17:34:58.240Z,8.78
2022-10-06T17:37:02.729Z,8.75
2022-10-06T17:39:09.322Z,8.77
2022-10-06T17:41:22.265Z,8.77
2022-10-06T17:43:25.137Z,8.77
2022-10-06T17:45:27.967Z,8.77
2022-10-06T17:47:30.818Z,8.77
2022-10-06T17:49:35.071Z,8.75
2022-10-06T17:51:41.052Z,8.77
2022-10-06T17:53:46.603Z,8.77
2022-10-06T17:55:50.025Z,8.79
2022-10-06T17:57:53.116Z,8.78
2022-10-06T17:59:59.276Z,8.81
2022-10-06T18:02:03.795Z,8.80
2022-10-06T18:04:07.315Z,8.77
2022-10-06T18:06:12.083Z,8.79
2022-10-06T18:08:15.104Z,8.78
2022-10-06T18:10:36.471Z,8.81
2022-10-06T18:12:39.388Z,8.81
2022-10-06T18:14:43.513Z,8.83
2022-10-06T18:16:56.837Z,8.82
2022-10-06T18:19:03.137Z,8.81
2022-10-06T18:21:06.061Z,8.79
2022-10-06T18:23:09.846Z,8.81
2022-10-06T18:25:16.901Z,8.82
2022-10-06T18:27:19.653Z,8.82
2022-10-06T18:29:24.756Z,8.82
2022-10-06T18:31:27.771Z,8.81
2022-10-06T18:35:50.739Z,8.80
2022-10-06T18:36:14.961Z,8.81
2022-10-06T18:38:18.151Z,8.81
2022-10-06T18:40:20.965Z,8.82
2022-10-06T18:42:24.378Z,8.80
2022-10-06T18:44:45.879Z,8.79
2022-10-06T18:47:07.186Z,8.82
2022-10-06T18:49:13.015Z,8.80
2022-10-06T18:51:15.712Z,8.79
2022-10-06T18:53:18.360Z,8.81
2022-10-06T18:55:21.111Z,8.81
2022-10-06T18:57:27.949Z,8.78
2022-10-06T18:59:31.551Z,8.79
2022-10-06T19:01:35.341Z,8.81
2022-10-06T19:03:38.059Z,8.77
2022-10-06T19:05:52.900Z,8.78
2022-10-06T19:07:56.067Z,8.75
2022-10-06T19:09:59.280Z,8.74
2022-10-06T19:12:02.087Z,8.76
2022-10-06T19:14:06.706Z,8.74
2022-10-06T19:16:09.521Z,8.76
2022-10-06T19:18:12.198Z,8.73
2022-10-06T19:20:15.555Z,8.71
2022-10-06T19:22:23.979Z,8.75
2022-10-06T19:24:34.969Z,8.74
2022-10-06T19:26:42.404Z,8.79
2022-10-06T19:28:47.822Z,8.79
2022-10-06T19:30:57.857Z,8.79
2022-10-06T19:33:01.339Z,8.78
2022-10-06T19:35:10.161Z,8.80
2022-10-06T19:37:14.812Z,8.77
2022-10-06T19:39:18.435Z,8.78
2022-10-06T19:41:40.094Z,8.71
2022-10-06T19:43:42.868Z,8.77
2022-10-06T19:45:56.983Z,8.76
2022-10-06T19:47:59.636Z,8.72
2022-10-06T19:50:08.739Z,8.72
2022-10-06T19:52:14.820Z,8.69
2022-10-06T19:54:19.310Z,8.72
2022-10-06T19:56:25.532Z,8.72
2022-10-06T19:58:28.422Z,8.75
2022-10-06T20:00:32.026Z,8.73
2022-10-06T20:02:37.450Z,8.73
2022-10-06T20:04:45.719Z,8.74
2022-10-06T20:06:48.984Z,8.75
2022-10-06T20:08:52.630Z,8.72
2022-10-06T20:11:05.501Z,8.74
2022-10-06T20:13:08.097Z,8.75
2022-10-06T20:15:13.013Z,8.78
2022-10-06T20:17:17.672Z,8.80
2022-10-06T20:19:21.920Z,8.82
2022-10-06T20:21:30.250Z,8.79
2022-10-06T20:23:33.169Z,8.78
2022-10-06T20:25:35.850Z,8.78
2022-10-06T20:27:38.652Z,8.76
2022-10-06T20:29:41.350Z,8.77
2022-10-06T20:31:47.067Z,8.77
2022-10-06T20:33:50.525Z,8.76
2022-10-06T20:35:53.261Z,8.75
2022-10-06T20:37:55.945Z,8.76
2022-10-06T20:40:17.101Z,8.77
2022-10-06T20:42:21.002Z,8.77
2022-10-06T20:44:23.818Z,8.74
2022-10-06T20:46:32.019Z,8.75
2022-10-06T20:48:35.234Z,8.77
2022-10-06T20:50:37.860Z,8.72
2022-10-06T20:52:40.495Z,8.71
2022-10-06T20:54:43.482Z,8.72
2022-10-06T20:56:50.404Z,8.70
2022-10-06T20:58:53.928Z,8.61
2022-10-06T21:01:04.138Z,8.65
2022-10-06T21:03:07.137Z,8.63
2022-10-06T21:05:10.361Z,8.60
2022-10-06T21:07:13.249Z,8.59
2022-10-06T21:09:19.170Z,8.50
2022-10-06T21:11:23.911Z,8.60
2022-10-06T21:13:28.500Z,8.60
2022-10-06T21:15:31.173Z,8.58
2022-10-06T21:17:33.922Z,8.57
2022-10-06T21:19:38.020Z,8.57
2022-10-06T21:21:42.633Z,8.55
2022-10-06T21:23:50.903Z,8.53
2022-10-06T21:25:54.091Z,8.53
2022-10-06T21:27:56.922Z,8.54
2022-10-06T21:29:59.606Z,8.53
2022-10-06T21:32:02.372Z,8.51
2022-10-06T21:34:05.335Z,8.52
2022-10-06T21:36:14.572Z,8.50
2022-10-06T21:38:17.388Z,8.49
2022-10-06T21:40:19.991Z,8.48
2022-10-06T21:42:22.798Z,8.48
2022-10-06T21:44:25.487Z,8.48
2022-10-06T21:46:42.670Z,8.47
2022-10-06T21:48:50.229Z,8.42
2022-10-06T21:50:55.983Z,8.41
2022-10-06T21:52:58.756Z,8.43
2022-10-06T21:55:01.441Z,8.43
2022-10-06T21:57:05.531Z,8.45
2022-10-06T21:59:09.526Z,8.48
2022-10-06T22:01:12.557Z,8.49
2022-10-06T22:03:15.442Z,8.48
2022-10-06T22:05:18.162Z,8.48
2022-10-06T22:07:20.935Z,8.45
2022-10-06T22:09:23.951Z,8.44
2022-10-06T22:11:30.040Z,8.37
2022-10-06T22:13:33.085Z,8.45
2022-10-06T22:15:36.678Z,8.44
2022-10-06T22:17:39.452Z,8.38
2022-10-06T22:19:42.193Z,8.38
2022-10-06T22:21:47.258Z,8.44
2022-10-06T22:24:04.095Z,8.45
2022-10-06T22:26:08.308Z,8.46
2022-10-06T22:28:11.230Z,8.44
2022-10-06T22:30:14.411Z,8.43
2022-10-06T22:32:17.467Z,8.41
2022-10-06T22:34:21.490Z,8.42
2022-10-06T22:36:25.403Z,8.43
2022-10-06T22:38:28.697Z,8.44
2022-10-06T22:40:31.819Z,8.43
2022-10-06T22:42:34.501Z,8.42
2022-10-06T22:44:37.153Z,8.37
2022-10-06T22:46:39.933Z,8.40
2022-10-06T22:48:42.838Z,8.40
2022-10-06T22:50:45.519Z,8.40
2022-10-06T22:52:48.301Z,8.42
2022-10-06T22:54:50.964Z,8.44
2022-10-06T22:56:53.653Z,8.40
2022-10-06T22:58:59.989Z,8.26
2022-10-06T23:01:13.838Z,8.35
2022-10-06T23:03:17.843Z,8.38
2022-10-06T23:05:21.194Z,8.38
2022-10-06T23:07:23.859Z,8.39
2022-10-06T23:09:26.531Z,8.39
2022-10-06T23:11:29.183Z,8.37
2022-10-06T23:13:31.911Z,8.38
2022-10-06T23:15:34.572Z,8.38
2022-10-06T23:17:41.456Z,8.40
2022-10-06T23:19:44.436Z,8.38
2022-10-06T23:21:47.067Z,8.41
2022-10-06T23:23:54.924Z,8.40
2022-10-06T23:26:02.468Z,8.43
2022-10-06T23:28:05.226Z,8.40
2022-10-06T23:30:08.647Z,8.40
2022-10-06T23:32:11.340Z,8.37
2022-10-06T23:34:14.011Z,8.38
2022-10-06T23:36:18.005Z,8.41
2022-10-06T23:38:20.622Z,8.41
2022-10-06T23:40:23.353Z,8.42
2022-10-06T23:42:26.064Z,8.41
2022-10-06T23:44:28.727Z,8.38
2022-10-06T23:46:31.340Z,8.34
2022-10-06T23:48:34.021Z,8.32
2022-10-06T23:50:36.727Z,8.30
2022-10-06T23:52:39.698Z,8.28
2022-10-06T23:54:42.319Z,8.26
2022-10-06T23:56:45.601Z,8.27
2022-10-06T23:58:48.524Z,8.26
